Mead, CO

3:14 AM MDT on October 20, 2014 (GMT -0600)
Erie Municipal Airport | Change Station
CLOSE
Current Station
Airport
Location: Erie,
Elevation: 5128 ft
Nearby Weather Stations

Elev 5128 ft 40.01 °N, 105.05 °W | Updated 19 minutes ago

Clear
Clear
40 °F
Feels Like 38 °F
N
4
Wind Variable Wind from SW

Today
High -- | Low -- °F
--% Chance of Precip.
Yesterday
High -- | Low -- °F
Precip. -- in
7:16 AM 6:12 PM
Waning Crescent, 12% visible
Pressure 30.15 in
Visibility 10.0 miles
Clouds Clear
Windchill 38 °F
Dew Point 36 °F
Humidity 87%
Rainfall 0.00 in
Snow Depth Not available.
UV 0 out of 12
Pollen 2.80 out of 12
PM2.5 Good
Flu Activity Sporadic
METAR KEIK 200855Z AUTO 22003KT 10SM CLR 04/02 A3015 RMK AO2 T00430023

More Conditions Fewer Conditions

Pressure 30.15 in
Visibility 10.0 miles
Clouds Clear
Windchill 38 °F
Dew Point 36 °F
Humidity 87%
Rainfall 0.00 in
Snow Depth Not available.
UV 0 out of 12
Pollen 2.80 out of 12
PM2.5 Good
Flu Activity Sporadic
METAR KEIK 200855Z AUTO 22003KT 10SM CLR 04/02 A3015 RMK AO2 T00430023

More Conditions Fewer Conditions

10-Day Weather Forecast

Almanac

Astronomy

Oct. 20, 2014 Rise Set
Actual Time 7:16 AM MDT 6:12 PM MDT
Civil Twilight 6:48 AM MDT 6:40 PM MDT
Nautical Twilight 6:16 AM MDT 7:11 PM MDT
Astronomical Twilight 5:45 AM MDT 7:43 PM MDT
Moon 4:06 AM MDT 4:37 PM MDT
Length of Visible Light 11h 51m
Length of Day
10h 56m
Waning Crescent, 12% of the Moon is Illuminated
Today
Waning Crescent
Oct 23
New
Oct 30
First Quarter
Nov 6
Full
Nov 14
Last Quarter

Today's Extremes

State Highs State Lows

Community

WunderPhotos

Upload Photos

1,763,316 photos uploaded!

Nearby

Air Quality

  Air Quality AQ Index Pollutant
Yesterday Good
OZONE
Current Good
PM2.5
Monday Good
PM2.5
Monday Good
OZONE

Snow Depth

Station Depth Elevation
Copeland Lake 1 in 8600 ft
Wild Basin 0 in 9560 ft
Niwot 0 in 9910 ft
University Camp 1 in 10300 ft
Bear Lake 0 in 9500 ft

Earthquake Activity

City Distance Mag. Time & Date
No recent earthquake activity has been reported nearby.
Minimum magnitude displayed is 2.5.

Coastal Water Temperatures

Place Temperature
No Stations Reporting

Nearby Weather Stations